createdAt,value
2023-01-21T00:00:30.328Z,63.73
2023-01-21T00:01:30.314Z,63.64
2023-01-21T00:02:30.410Z,63.6
2023-01-21T00:03:30.569Z,63.92
2023-01-21T00:04:30.096Z,64.02
2023-01-21T00:05:30.399Z,63.83
2023-01-21T00:06:30.387Z,63.92
2023-01-21T00:07:30.400Z,64.02
2023-01-21T00:08:30.428Z,63.51
2023-01-21T00:09:30.458Z,63.73
2023-01-21T00:10:30.446Z,63.7
2023-01-21T00:11:30.457Z,63.6
2023-01-21T00:12:30.473Z,63.89
2023-01-21T00:13:30.495Z,63.6
2023-01-21T00:14:30.251Z,63.7
2023-01-21T00:15:30.649Z,63.7
2023-01-21T00:16:30.307Z,63.79
2023-01-21T00:17:30.290Z,63.7
2023-01-21T00:18:32.575Z,63.89
2023-01-21T00:19:30.584Z,63.98
2023-01-21T00:20:30.330Z,63.89
2023-01-21T00:21:30.622Z,63.7
2023-01-21T00:22:30.639Z,64.08
2023-01-21T00:23:30.372Z,63.89
2023-01-21T00:24:30.659Z,63.79
2023-01-21T00:25:30.657Z,63.89
2023-01-21T00:26:30.684Z,63.79
2023-01-21T00:27:30.686Z,63.79
2023-01-21T00:28:30.701Z,63.42
2023-01-21T00:29:30.720Z,63.6
2023-01-21T00:30:30.647Z,63.13
2023-01-21T00:31:30.743Z,63.79
2023-01-21T00:32:30.809Z,63.89
2023-01-21T00:33:30.841Z,63.32
2023-01-21T00:34:30.813Z,63.42
2023-01-21T00:35:30.544Z,63.51
2023-01-21T00:36:30.829Z,63.6
2023-01-21T00:37:30.850Z,63.42
2023-01-21T00:38:30.847Z,63.79
2023-01-21T00:39:30.863Z,63.6
2023-01-21T00:40:30.877Z,63.7
2023-01-21T00:41:30.894Z,63.51
2023-01-21T00:42:30.900Z,63.7
2023-01-21T00:43:30.656Z,63.7
2023-01-21T00:44:30.934Z,63.51
2023-01-21T00:45:30.943Z,63.79
2023-01-21T00:46:31.148Z,63.6
2023-01-21T00:47:30.716Z,63.32
2023-01-21T00:48:31.048Z,63.7
2023-01-21T00:49:30.760Z,63.7
2023-01-21T00:50:30.758Z,63.42
2023-01-21T00:51:31.031Z,63.98
2023-01-21T00:52:31.058Z,63.89
2023-01-21T00:53:31.545Z,63.42
2023-01-21T00:54:31.045Z,63.29
2023-01-21T00:55:31.141Z,63.39
2023-01-21T00:56:31.235Z,63.39
2023-01-21T00:57:31.187Z,63.39
2023-01-21T00:58:31.442Z,63.29
2023-01-21T00:59:30.880Z,63.1
2023-01-21T01:00:31.162Z,63.48
2023-01-21T01:01:31.044Z,63.67
2023-01-21T01:02:31.238Z,63.39
2023-01-21T01:03:31.207Z,63.48
2023-01-21T01:04:31.240Z,63.57
2023-01-21T01:05:30.971Z,63.39
2023-01-21T01:06:31.261Z,63.76
2023-01-21T01:07:31.268Z,63.67
2023-01-21T01:08:31.272Z,63.39
2023-01-21T01:09:31.315Z,63.67
2023-01-21T01:10:31.057Z,63.2
2023-01-21T01:11:31.326Z,63.29
2023-01-21T01:12:31.331Z,63.29
2023-01-21T01:13:31.349Z,63.29
2023-01-21T01:14:31.356Z,63.48
2023-01-21T01:15:31.369Z,63.29
2023-01-21T01:16:31.404Z,63.39
2023-01-21T01:17:31.416Z,63.57
2023-01-21T01:18:31.420Z,63.1
2023-01-21T01:19:31.452Z,63.39
2023-01-21T01:20:31.465Z,63.29
2023-01-21T01:21:31.459Z,63.39
2023-01-21T01:22:31.212Z,63.29
2023-01-21T01:23:31.787Z,63.67
2023-01-21T01:24:31.502Z,63.2
2023-01-21T01:25:31.547Z,63.39
2023-01-21T01:26:31.525Z,63.2
2023-01-21T01:27:31.280Z,63.2
2023-01-21T01:28:31.567Z,63.29
2023-01-21T01:29:31.572Z,63.29
2023-01-21T01:30:31.963Z,63.1
2023-01-21T01:31:31.691Z,63.2
2023-01-21T01:32:31.608Z,63.29
2023-01-21T01:33:31.361Z,63.39
2023-01-21T01:34:31.637Z,63.29
2023-01-21T01:35:31.664Z,63.2
2023-01-21T01:36:31.688Z,63.39
2023-01-21T01:37:31.680Z,63.2
2023-01-21T01:38:31.690Z,63.1
2023-01-21T01:39:31.709Z,63.2
2023-01-21T01:40:31.726Z,63.29
2023-01-21T01:41:31.792Z,63.2
2023-01-21T01:42:31.774Z,63.2
2023-01-21T01:43:31.763Z,63.48
2023-01-21T01:44:31.794Z,63.2
2023-01-21T01:45:32.010Z,63.39
2023-01-21T01:46:32.021Z,63.48
2023-01-21T01:47:31.822Z,63.1
2023-01-21T01:48:31.852Z,63.17
2023-01-21T01:49:31.849Z,63.48
2023-01-21T01:50:32.057Z,63.2
2023-01-21T01:51:31.887Z,63.48
2023-01-21T01:52:31.946Z,63.26
2023-01-21T01:53:32.117Z,63.35
2023-01-21T01:54:31.953Z,63.07
2023-01-21T01:55:31.699Z,63.35
2023-01-21T01:56:31.951Z,63.26
2023-01-21T01:57:32.082Z,63.07
2023-01-21T01:58:31.975Z,63.07
2023-01-21T01:59:32.007Z,63.26
2023-01-21T02:00:31.747Z,62.97
2023-01-21T02:01:32.061Z,63.26
2023-01-21T02:02:32.095Z,63.26
2023-01-21T02:03:32.065Z,63.35
2023-01-21T02:04:31.818Z,62.97
2023-01-21T02:05:32.066Z,63.35
2023-01-21T02:06:32.095Z,63.26
2023-01-21T02:07:32.172Z,63.26
2023-01-21T02:08:31.985Z,63.45
2023-01-21T02:09:32.432Z,62.97
2023-01-21T02:10:32.151Z,63.26
2023-01-21T02:11:31.908Z,63.07
2023-01-21T02:12:32.180Z,63.35
2023-01-21T02:13:32.236Z,63.45
2023-01-21T02:14:32.197Z,63.07
2023-01-21T02:15:32.209Z,63.26
2023-01-21T02:16:32.423Z,63.45
2023-01-21T02:17:32.247Z,63.35
2023-01-21T02:18:32.258Z,62.97
2023-01-21T02:19:32.009Z,63.07
2023-01-21T02:20:32.279Z,63.17
2023-01-21T02:21:32.297Z,63.35
2023-01-21T02:22:32.321Z,62.5
2023-01-21T02:23:32.318Z,63.26
2023-01-21T02:24:32.361Z,63.17
2023-01-21T02:25:32.355Z,63.26
2023-01-21T02:26:32.364Z,62.97
2023-01-21T02:27:33.538Z,62.97
2023-01-21T02:28:32.409Z,63.17
2023-01-21T02:29:32.430Z,63.07
2023-01-21T02:30:32.448Z,62.5
2023-01-21T02:31:32.263Z,62.5
2023-01-21T02:32:32.452Z,62.5
2023-01-21T02:33:32.480Z,62.88
2023-01-21T02:34:32.483Z,63.07
2023-01-21T02:35:32.226Z,62.69
2023-01-21T02:36:32.512Z,63.35
2023-01-21T02:37:32.517Z,63.17
2023-01-21T02:38:32.529Z,62.69
2023-01-21T02:39:32.542Z,62.59
2023-01-21T02:40:32.585Z,62.59
2023-01-21T02:41:32.316Z,62.59
2023-01-21T02:42:32.586Z,62.97
2023-01-21T02:43:32.614Z,63.17
2023-01-21T02:44:32.400Z,63.26
2023-01-21T02:45:32.640Z,63.17
2023-01-21T02:46:32.768Z,63.35
2023-01-21T02:47:32.667Z,63.17
2023-01-21T02:48:32.684Z,62.59
2023-01-21T02:49:32.682Z,62.59
2023-01-21T02:50:32.710Z,63.07
2023-01-21T02:51:32.712Z,63.17
2023-01-21T02:52:32.462Z,62.69
2023-01-21T02:53:32.944Z,62.69
2023-01-21T02:54:32.753Z,62.88
2023-01-21T02:55:32.780Z,62.78
2023-01-21T02:56:32.553Z,62.78
2023-01-21T02:57:32.796Z,62.5
2023-01-21T02:58:32.814Z,62.5
2023-01-21T02:59:32.593Z,62.4
2023-01-21T03:00:32.585Z,62.4
2023-01-21T03:01:32.881Z,62.78
2023-01-21T03:02:32.878Z,62.59
2023-01-21T03:03:32.899Z,62.78
2023-01-21T03:04:32.628Z,62.59
2023-01-21T03:05:32.921Z,62.88
2023-01-21T03:06:32.724Z,62.47
2023-01-21T03:07:32.947Z,62.28
2023-01-21T03:08:32.695Z,62.4
2023-01-21T03:09:32.700Z,62.75
2023-01-21T03:10:32.704Z,62.75
2023-01-21T03:11:32.980Z,62.56
2023-01-21T03:12:33.033Z,62.56
2023-01-21T03:13:33.017Z,62.31
2023-01-21T03:14:33.027Z,62.28
2023-01-21T03:15:32.780Z,62.4
2023-01-21T03:16:33.176Z,62.37
2023-01-21T03:17:33.099Z,62.66
2023-01-21T03:18:33.079Z,62.37
2023-01-21T03:19:33.100Z,62.37
2023-01-21T03:20:33.099Z,62.28
2023-01-21T03:21:33.170Z,62.37
2023-01-21T03:22:33.134Z,62.28
2023-01-21T03:23:32.888Z,62.47
2023-01-21T03:24:33.162Z,62.28
2023-01-21T03:25:32.919Z,62.28
2023-01-21T03:26:33.188Z,62.37
2023-01-21T03:27:33.205Z,62.47
2023-01-21T03:28:33.252Z,62.37
2023-01-21T03:29:32.971Z,62.28
2023-01-21T03:30:33.377Z,62.47
2023-01-21T03:31:33.314Z,62.47
2023-01-21T03:32:33.267Z,62.28
2023-01-21T03:33:33.344Z,62.47
2023-01-21T03:34:33.331Z,62.37
2023-01-21T03:35:33.048Z,62.47
2023-01-21T03:36:33.332Z,62.37
2023-01-21T03:37:33.353Z,62.47
2023-01-21T03:38:33.357Z,62.56
2023-01-21T03:39:33.382Z,62.37
2023-01-21T03:40:33.117Z,62.47
2023-01-21T03:41:33.137Z,62.56
2023-01-21T03:42:33.601Z,62.56
2023-01-21T03:43:33.421Z,62.47
2023-01-21T03:44:33.471Z,62.56
2023-01-21T03:45:33.289Z,62.47
2023-01-21T03:46:33.468Z,62.47
2023-01-21T03:47:33.474Z,62.47
2023-01-21T03:48:33.504Z,62.66
2023-01-21T03:49:33.642Z,62.28
2023-01-21T03:50:33.516Z,62.37
2023-01-21T03:51:33.534Z,62.28
2023-01-21T03:52:33.549Z,62.47
2023-01-21T03:53:33.609Z,62.08
2023-01-21T03:54:33.569Z,62.28
2023-01-21T03:55:33.588Z,62.56
2023-01-21T03:56:33.601Z,62.47
2023-01-21T03:57:33.615Z,62.56
2023-01-21T03:58:33.373Z,62.66
2023-01-21T03:59:33.748Z,62.37
2023-01-21T04:00:33.681Z,62.47
2023-01-21T04:01:33.663Z,62.08
2023-01-21T04:02:33.777Z,62.28
2023-01-21T04:03:33.694Z,61.99
2023-01-21T04:04:33.702Z,62.56
2023-01-21T04:05:33.754Z,62.56
2023-01-21T04:06:33.495Z,62.56
2023-01-21T04:07:33.494Z,62.37
2023-01-21T04:08:33.777Z,62.56
2023-01-21T04:09:33.773Z,62.56
2023-01-21T04:10:33.789Z,62.37
2023-01-21T04:11:33.800Z,62.28
2023-01-21T04:12:33.819Z,62.56
2023-01-21T04:13:33.843Z,62.37
2023-01-21T04:14:33.883Z,62.28
2023-01-21T04:15:33.866Z,62.37
2023-01-21T04:16:33.798Z,62.37
2023-01-21T04:17:33.877Z,62.47
2023-01-21T04:18:33.918Z,62.37
2023-01-21T04:19:33.656Z,62.18
2023-01-21T04:20:33.933Z,62.08
2023-01-21T04:21:33.979Z,62.56
2023-01-21T04:22:34.214Z,62.37
2023-01-21T04:23:33.986Z,62.37
2023-01-21T04:24:37.005Z,62.66
2023-01-21T04:25:33.986Z,62.66
2023-01-21T04:26:34.007Z,62.18
2023-01-21T04:27:34.019Z,62.56
2023-01-21T04:28:34.022Z,62.47
2023-01-21T04:29:33.796Z,62.28
2023-01-21T04:30:34.157Z,62.37
2023-01-21T04:31:34.314Z,62.34
2023-01-21T04:32:33.856Z,62.66
2023-01-21T04:33:34.101Z,62.47
2023-01-21T04:34:34.119Z,62.47
2023-01-21T04:35:34.128Z,62.43
2023-01-21T04:36:34.139Z,62.47
2023-01-21T04:37:34.197Z,62.47
2023-01-21T04:38:33.907Z,62.47
2023-01-21T04:39:34.193Z,62.28
2023-01-21T04:40:34.215Z,62.28
2023-01-21T04:41:34.206Z,62.24
2023-01-21T04:42:34.226Z,62.28
2023-01-21T04:43:34.243Z,62.37
2023-01-21T04:44:34.255Z,62.37
2023-01-21T04:45:34.286Z,62.34
2023-01-21T04:46:34.014Z,62.47
2023-01-21T04:47:34.293Z,62.34
2023-01-21T04:48:34.326Z,62.82
2023-01-21T04:49:34.333Z,62.62
2023-01-21T04:50:34.336Z,62.82
2023-01-21T04:51:34.349Z,62.56
2023-01-21T04:52:34.351Z,62.53
2023-01-21T04:53:34.751Z,62.43
2023-01-21T04:54:34.383Z,63.29
2023-01-21T04:55:34.139Z,63.29
2023-01-21T04:56:34.406Z,63.32
2023-01-21T04:57:34.419Z,63.29
2023-01-21T04:58:34.440Z,63.01
2023-01-21T04:59:34.444Z,62.82
2023-01-21T05:00:34.461Z,62.91
2023-01-21T05:01:34.248Z,63.39
2023-01-21T05:02:34.432Z,63.39
2023-01-21T05:03:34.525Z,63.29
2023-01-21T05:04:34.537Z,63.48
2023-01-21T05:05:34.545Z,63.1
2023-01-21T05:06:34.543Z,63.29
2023-01-21T05:07:34.566Z,63.2
2023-01-21T05:08:34.322Z,63.01
2023-01-21T05:09:34.623Z,63.29
2023-01-21T05:10:34.592Z,63.2
2023-01-21T05:11:34.610Z,63.1
2023-01-21T05:12:34.626Z,63.1
2023-01-21T05:13:34.657Z,63.1
2023-01-21T05:14:34.640Z,63.39
2023-01-21T05:15:34.837Z,63.39
2023-01-21T05:16:34.492Z,63.39
2023-01-21T05:17:34.432Z,63.39
2023-01-21T05:18:34.702Z,63.2
2023-01-21T05:19:34.718Z,63.29
2023-01-21T05:20:34.760Z,63.57
2023-01-21T05:21:34.752Z,63.57
2023-01-21T05:22:34.757Z,63.48
2023-01-21T05:23:34.768Z,63.48
2023-01-21T05:24:34.796Z,63.67
2023-01-21T05:25:34.825Z,63.29
2023-01-21T05:26:34.558Z,63.67
2023-01-21T05:27:34.826Z,63.57
2023-01-21T05:28:34.843Z,63.67
2023-01-21T05:29:34.855Z,63.67
2023-01-21T05:30:34.934Z,63.48
2023-01-21T05:31:35.167Z,63.48
2023-01-21T05:32:34.893Z,63.57
2023-01-21T05:33:34.931Z,63.48
2023-01-21T05:34:34.924Z,63.67
2023-01-21T05:35:34.773Z,63.39
2023-01-21T05:36:34.975Z,63.39
2023-01-21T05:37:34.969Z,63.57
2023-01-21T05:38:34.960Z,63.85
2023-01-21T05:39:34.725Z,63.85
2023-01-21T05:40:35.117Z,63.95
2023-01-21T05:41:35.032Z,63.95
2023-01-21T05:42:35.022Z,63.85
2023-01-21T05:43:35.042Z,63.95
2023-01-21T05:44:35.046Z,63.76
2023-01-21T05:45:35.168Z,63.85
2023-01-21T05:46:35.068Z,63.76
2023-01-21T05:47:35.091Z,63.76
2023-01-21T05:48:35.116Z,64.14
2023-01-21T05:49:34.850Z,64.14
2023-01-21T05:50:35.132Z,63.95
2023-01-21T05:51:35.140Z,64.14
2023-01-21T05:52:35.209Z,64.14
2023-01-21T05:53:35.714Z,64.33
2023-01-21T05:54:35.178Z,64.23
2023-01-21T05:55:35.198Z,64.23
2023-01-21T05:56:35.234Z,64.23
2023-01-21T05:57:35.273Z,64.04
2023-01-21T05:58:35.236Z,64.23
2023-01-21T05:59:35.249Z,64.23
2023-01-21T06:00:35.002Z,64.33
2023-01-21T06:01:35.266Z,63.95
2023-01-21T06:02:35.438Z,64.14
2023-01-21T06:03:35.396Z,63.95
2023-01-21T06:04:35.413Z,63.76
2023-01-21T06:05:35.328Z,63.95
2023-01-21T06:06:35.338Z,64.23
2023-01-21T06:07:35.351Z,64.14
2023-01-21T06:08:35.400Z,64.71
2023-01-21T06:09:35.381Z,64.23
2023-01-21T06:10:35.393Z,64.42
2023-01-21T06:11:35.439Z,64.61
2023-01-21T06:12:35.414Z,64.61
2023-01-21T06:13:35.466Z,64.33
2023-01-21T06:14:35.450Z,64.81
2023-01-21T06:15:35.512Z,64.61
2023-01-21T06:16:35.470Z,64.61
2023-01-21T06:17:35.489Z,64.61
2023-01-21T06:18:35.238Z,64.61
2023-01-21T06:19:35.520Z,64.61
2023-01-21T06:20:35.526Z,64.9
2023-01-21T06:21:35.541Z,64.71
2023-01-21T06:22:35.551Z,64.9
2023-01-21T06:23:35.565Z,65.19
2023-01-21T06:24:35.617Z,64.81
2023-01-21T06:25:35.612Z,64.9
2023-01-21T06:26:35.599Z,65.09
2023-01-21T06:27:35.625Z,64.9
2023-01-21T06:28:35.632Z,65
2023-01-21T06:29:35.674Z,64.9
2023-01-21T06:30:35.675Z,64.81
2023-01-21T06:31:35.894Z,65.28
2023-01-21T06:32:35.693Z,65.28
2023-01-21T06:33:35.708Z,65.28
2023-01-21T06:34:35.709Z,65.19
2023-01-21T06:35:35.469Z,65.56
2023-01-21T06:36:35.739Z,65.28
2023-01-21T06:37:35.495Z,65.28
2023-01-21T06:38:35.764Z,65.66
2023-01-21T06:39:35.524Z,65.47
2023-01-21T06:40:35.820Z,65.37
2023-01-21T06:41:35.814Z,65.47
2023-01-21T06:42:35.814Z,65.19
2023-01-21T06:43:35.830Z,65.19
2023-01-21T06:44:35.849Z,65.28
2023-01-21T06:45:35.879Z,65.37
2023-01-21T06:46:35.997Z,65.37
2023-01-21T06:47:35.901Z,65.19
2023-01-21T06:48:35.896Z,65.28
2023-01-21T06:49:35.658Z,65.66
2023-01-21T06:50:35.923Z,65.66
2023-01-21T06:51:35.939Z,65.94
2023-01-21T06:52:35.702Z,65.94
2023-01-21T06:53:36.254Z,65.75
2023-01-21T06:54:35.985Z,66.03
2023-01-21T06:55:36.004Z,65.94
2023-01-21T06:56:36.042Z,65.75
2023-01-21T06:57:36.020Z,65.75
2023-01-21T06:58:35.777Z,65.84
2023-01-21T06:59:36.036Z,65.94
2023-01-21T07:00:36.060Z,65.84
2023-01-21T07:01:36.226Z,65.56
2023-01-21T07:02:36.174Z,65.84
2023-01-21T07:03:35.874Z,65.66
2023-01-21T07:04:36.175Z,65.84
2023-01-21T07:05:36.115Z,66.03
2023-01-21T07:06:36.149Z,66.13
2023-01-21T07:07:35.891Z,66.22
2023-01-21T07:08:36.169Z,66.32
2023-01-21T07:09:35.911Z,66.13
2023-01-21T07:10:36.185Z,65.94
2023-01-21T07:11:36.205Z,65.94
2023-01-21T07:12:36.253Z,66.03
2023-01-21T07:13:35.966Z,66.03
2023-01-21T07:14:36.237Z,65.94
2023-01-21T07:15:35.997Z,66.51
2023-01-21T07:16:36.006Z,66.13
2023-01-21T07:17:36.306Z,66.6
2023-01-21T07:18:36.310Z,66.6
2023-01-21T07:19:36.305Z,66.51
2023-01-21T07:20:36.324Z,66.41
2023-01-21T07:21:36.331Z,66.41
2023-01-21T07:22:36.509Z,66.41
2023-01-21T07:23:36.362Z,66.22
2023-01-21T07:24:36.375Z,66.6
2023-01-21T07:25:36.164Z,66.22
2023-01-21T07:26:36.396Z,66.22
2023-01-21T07:27:36.410Z,66.13
2023-01-21T07:28:36.451Z,66.32
2023-01-21T07:29:36.433Z,66.22
2023-01-21T07:30:36.443Z,66.7
2023-01-21T07:31:36.773Z,66.7
2023-01-21T07:32:36.498Z,66.8
2023-01-21T07:33:36.527Z,66.41
2023-01-21T07:34:36.512Z,66.41
2023-01-21T07:35:36.280Z,66.8
2023-01-21T07:36:36.530Z,66.8
2023-01-21T07:37:36.663Z,66.6
2023-01-21T07:38:36.566Z,66.89
2023-01-21T07:39:36.567Z,66.8
2023-01-21T07:40:36.589Z,66.89
2023-01-21T07:41:36.607Z,66.8
2023-01-21T07:42:36.617Z,66.22
2023-01-21T07:43:36.617Z,66.51
2023-01-21T07:44:36.668Z,66.41
2023-01-21T07:45:36.388Z,66.41
2023-01-21T07:46:36.714Z,66.41
2023-01-21T07:47:36.681Z,66.6
2023-01-21T07:48:36.681Z,66.6
2023-01-21T07:49:36.721Z,66.32
2023-01-21T07:50:36.723Z,66.32
2023-01-21T07:51:36.747Z,66.7
2023-01-21T07:52:36.738Z,66.99
2023-01-21T07:53:36.806Z,66.8
2023-01-21T07:54:36.755Z,66.8
2023-01-21T07:55:36.786Z,66.89
2023-01-21T07:56:36.788Z,66.99
2023-01-21T07:57:36.797Z,66.99
2023-01-21T07:58:36.849Z,66.7
2023-01-21T07:59:36.839Z,66.89
2023-01-21T08:00:36.884Z,67.18
2023-01-21T08:01:36.971Z,67.18
2023-01-21T08:02:37.116Z,67.27
2023-01-21T08:03:36.888Z,67.18
2023-01-21T08:04:36.891Z,67.27
2023-01-21T08:05:36.956Z,67.36
2023-01-21T08:06:36.649Z,67.46
2023-01-21T08:07:36.672Z,67.27
2023-01-21T08:08:36.953Z,67.55
2023-01-21T08:09:36.968Z,67.46
2023-01-21T08:10:36.977Z,67.36
2023-01-21T08:11:36.988Z,67.65
2023-01-21T08:12:37.002Z,67.36
2023-01-21T08:13:37.015Z,67.27
2023-01-21T08:14:36.777Z,67.18
2023-01-21T08:15:37.046Z,67.18
2023-01-21T08:16:37.271Z,67.18
2023-01-21T08:17:37.092Z,67.27
2023-01-21T08:18:37.073Z,67.27
2023-01-21T08:19:37.118Z,67.27
2023-01-21T08:20:36.864Z,67.18
2023-01-21T08:21:37.143Z,67.27
2023-01-21T08:22:37.135Z,67.18
2023-01-21T08:23:37.158Z,67.08
2023-01-21T08:24:37.153Z,67.27
2023-01-21T08:25:37.186Z,67.18
2023-01-21T08:26:37.195Z,67.46
2023-01-21T08:27:37.210Z,68.02
2023-01-21T08:28:37.220Z,68.02
2023-01-21T08:29:37.228Z,68.02
2023-01-21T08:30:37.344Z,68.12
2023-01-21T08:31:37.312Z,67.93
2023-01-21T08:32:37.286Z,67.93
2023-01-21T08:33:37.283Z,67.55
2023-01-21T08:34:37.301Z,68.02
2023-01-21T08:35:37.295Z,67.83
2023-01-21T08:36:37.320Z,67.93
2023-01-21T08:37:37.353Z,68.02
2023-01-21T08:38:37.364Z,68.02
2023-01-21T08:39:37.098Z,67.65
2023-01-21T08:40:37.112Z,67.74
2023-01-21T08:41:37.155Z,67.74
2023-01-21T08:42:37.146Z,67.74
2023-01-21T08:43:37.403Z,67.83
2023-01-21T08:44:37.420Z,68.02
2023-01-21T08:45:37.500Z,67.83
2023-01-21T08:46:37.458Z,67.65
2023-01-21T08:47:37.472Z,68.12
2023-01-21T08:48:37.239Z,68.31
2023-01-21T08:49:37.778Z,68.12
2023-01-21T08:50:37.508Z,68.02
2023-01-21T08:51:37.251Z,68.02
2023-01-21T08:52:37.550Z,68.12
2023-01-21T08:53:37.630Z,68.12
2023-01-21T08:54:37.549Z,68.02
2023-01-21T08:55:37.556Z,68.12
2023-01-21T08:56:37.573Z,68.21
2023-01-21T08:57:37.597Z,68.4
2023-01-21T08:58:37.401Z,68.12
2023-01-21T08:59:37.339Z,68.12
2023-01-21T09:00:37.423Z,68.5
2023-01-21T09:01:37.648Z,68.31
2023-01-21T09:02:37.652Z,68.4
2023-01-21T09:03:37.678Z,68.4
2023-01-21T09:04:37.701Z,68.21
2023-01-21T09:05:37.693Z,68.02
2023-01-21T09:06:37.453Z,68.02
2023-01-21T09:07:37.712Z,68.4
2023-01-21T09:08:37.735Z,68.5
2023-01-21T09:09:37.797Z,68.12
2023-01-21T09:10:37.888Z,68.79
2023-01-21T09:11:37.761Z,68.31
2023-01-21T09:12:37.794Z,68.69
2023-01-21T09:13:37.810Z,68.02
2023-01-21T09:14:37.808Z,68.02
2023-01-21T09:15:37.817Z,68.21
2023-01-21T09:16:37.965Z,68.31
2023-01-21T09:17:37.847Z,68.79
2023-01-21T09:18:37.888Z,68.21
2023-01-21T09:19:37.878Z,68.12
2023-01-21T09:20:37.936Z,68.31
2023-01-21T09:21:37.922Z,68.88
2023-01-21T09:22:37.655Z,68.98
2023-01-21T09:23:37.927Z,68.69
2023-01-21T09:24:37.953Z,68.59
2023-01-21T09:25:37.970Z,68.69
2023-01-21T09:26:37.972Z,68.79
2023-01-21T09:27:37.986Z,68.69
2023-01-21T09:28:37.731Z,68.88
2023-01-21T09:29:38.003Z,69.35
2023-01-21T09:30:38.078Z,68.79
2023-01-21T09:31:38.089Z,68.59
2023-01-21T09:32:38.111Z,68.5
2023-01-21T09:33:38.053Z,68.79
2023-01-21T09:34:38.440Z,68.88
2023-01-21T09:35:38.080Z,68.88
2023-01-21T09:36:38.137Z,68.88
2023-01-21T09:37:38.116Z,69.26
2023-01-21T09:38:38.124Z,68.79
2023-01-21T09:39:37.877Z,68.79
2023-01-21T09:40:38.162Z,68.98
2023-01-21T09:41:38.203Z,69.07
2023-01-21T09:42:37.915Z,68.79
2023-01-21T09:43:38.182Z,68.98
2023-01-21T09:44:38.198Z,69.07
2023-01-21T09:45:38.026Z,68.98
2023-01-21T09:46:38.247Z,69.17
2023-01-21T09:47:38.244Z,69.07
2023-01-21T09:48:38.258Z,69.17
2023-01-21T09:49:38.264Z,69.64
2023-01-21T09:50:38.271Z,69.54
2023-01-21T09:51:38.285Z,69.54
2023-01-21T09:52:38.347Z,69.26
2023-01-21T09:53:38.333Z,69.45
2023-01-21T09:54:38.329Z,69.64
2023-01-21T09:55:38.357Z,69.45
2023-01-21T09:56:38.358Z,69.17
2023-01-21T09:57:38.393Z,69.45
2023-01-21T09:58:38.126Z,69.45
2023-01-21T09:59:38.144Z,69.35
2023-01-21T10:00:38.138Z,69.07
2023-01-21T10:01:38.420Z,69.07
2023-01-21T10:02:38.427Z,69.26
2023-01-21T10:03:38.492Z,69.45
2023-01-21T10:04:38.551Z,69.64
2023-01-21T10:05:38.475Z,69.26
2023-01-21T10:06:38.485Z,69.17
2023-01-21T10:07:38.495Z,69.64
2023-01-21T10:08:38.532Z,69.73
2023-01-21T10:09:38.278Z,69.17
2023-01-21T10:10:38.555Z,69.54
2023-01-21T10:11:38.565Z,69.17
2023-01-21T10:12:38.557Z,70.01
2023-01-21T10:13:38.600Z,70.11
2023-01-21T10:14:38.573Z,70.01
2023-01-21T10:15:38.601Z,70.11
2023-01-21T10:16:38.677Z,69.82
2023-01-21T10:17:38.625Z,69.82
2023-01-21T10:18:38.636Z,69.73
2023-01-21T10:19:38.675Z,70.01
2023-01-21T10:20:38.670Z,70.11
2023-01-21T10:21:38.685Z,70.01
2023-01-21T10:22:38.887Z,69.92
2023-01-21T10:23:38.717Z,69.92
2023-01-21T10:24:38.770Z,69.92
2023-01-21T10:25:38.736Z,70.01
2023-01-21T10:26:38.739Z,69.64
2023-01-21T10:27:38.756Z,70.01
2023-01-21T10:28:38.970Z,69.82
2023-01-21T10:29:38.811Z,69.82
2023-01-21T10:30:38.749Z,69.64
2023-01-21T10:31:39.169Z,70.11
2023-01-21T10:32:38.820Z,69.82
2023-01-21T10:33:38.834Z,69.82
2023-01-21T10:34:38.847Z,69.82
2023-01-21T10:35:38.852Z,70.01
2023-01-21T10:36:38.874Z,69.92
2023-01-21T10:37:38.898Z,70.2
2023-01-21T10:38:38.916Z,70.01
2023-01-21T10:39:38.918Z,69.82
2023-01-21T10:40:38.697Z,70.01
2023-01-21T10:41:38.936Z,69.82
2023-01-21T10:42:38.964Z,70.2
2023-01-21T10:43:38.716Z,70.11
2023-01-21T10:44:38.996Z,69.73
2023-01-21T10:45:39.013Z,69.82
2023-01-21T10:46:38.740Z,69.92
2023-01-21T10:47:39.018Z,70.01
2023-01-21T10:48:39.036Z,70.11
2023-01-21T10:49:38.786Z,69.92
2023-01-21T10:50:39.047Z,70.01
2023-01-21T10:51:39.072Z,70.2
2023-01-21T10:52:39.097Z,70.3
2023-01-21T10:53:39.160Z,70.01
2023-01-21T10:54:39.114Z,70.2
2023-01-21T10:55:39.123Z,70.2
2023-01-21T10:56:39.161Z,69.92
2023-01-21T10:57:39.150Z,70.2
2023-01-21T10:58:38.896Z,70.01
2023-01-21T10:59:38.925Z,69.82
2023-01-21T11:00:39.207Z,69.92
2023-01-21T11:01:39.396Z,69.92
2023-01-21T11:02:39.351Z,70.01
2023-01-21T11:03:39.242Z,70.49
2023-01-21T11:04:39.271Z,70.3
2023-01-21T11:05:39.264Z,70.39
2023-01-21T11:06:39.376Z,70.2
2023-01-21T11:07:39.016Z,70.3
2023-01-21T11:08:39.362Z,70.2
2023-01-21T11:09:39.060Z,70.3
2023-01-21T11:10:39.319Z,70.2
2023-01-21T11:11:39.336Z,70.2
2023-01-21T11:12:39.368Z,70.11
2023-01-21T11:13:39.351Z,70.3
2023-01-21T11:14:39.738Z,70.11
2023-01-21T11:15:39.417Z,70.11
2023-01-21T11:16:39.433Z,70.2
2023-01-21T11:17:39.423Z,70.01
2023-01-21T11:18:39.464Z,70.2
2023-01-21T11:19:39.473Z,70.11
2023-01-21T11:20:39.457Z,70.11
2023-01-21T11:21:39.475Z,70.01
2023-01-21T11:22:39.215Z,70.01
2023-01-21T11:23:39.528Z,70.01
2023-01-21T11:24:39.238Z,70.3
2023-01-21T11:25:39.254Z,69.92
2023-01-21T11:26:39.284Z,70.3
2023-01-21T11:27:39.543Z,70.3
2023-01-21T11:28:39.933Z,70.39
2023-01-21T11:29:39.587Z,70.3
2023-01-21T11:30:56.170Z,70.2
2023-01-21T11:31:39.879Z,70.01
2023-01-21T11:32:39.601Z,70.01
2023-01-21T11:33:39.671Z,70.01
2023-01-21T11:34:39.627Z,70.39
2023-01-21T11:35:39.654Z,70.39
2023-01-21T11:36:39.650Z,69.82
2023-01-21T11:37:39.672Z,70.2
2023-01-21T11:38:39.700Z,70.11
2023-01-21T11:39:39.443Z,70.2
2023-01-21T11:40:39.472Z,70.2
2023-01-21T11:41:39.750Z,70.2
2023-01-21T11:42:39.734Z,70.2
2023-01-21T11:43:39.756Z,70.01
2023-01-21T11:44:39.787Z,70.11
2023-01-21T11:45:39.782Z,70.11
2023-01-21T11:46:39.551Z,70.49
2023-01-21T11:47:39.799Z,70.68
2023-01-21T11:48:39.809Z,70.49
2023-01-21T11:49:39.862Z,70.2
2023-01-21T11:50:39.839Z,70.49
2023-01-21T11:51:39.862Z,70.58
2023-01-21T11:52:39.887Z,70.68
2023-01-21T11:53:39.880Z,70.68
2023-01-21T11:54:39.898Z,70.49
2023-01-21T11:55:39.914Z,70.49
2023-01-21T11:56:39.935Z,70.49
2023-01-21T11:57:39.941Z,70.49
2023-01-21T11:58:39.946Z,70.58
2023-01-21T11:59:39.955Z,71.06
2023-01-21T12:00:39.868Z,71.06
2023-01-21T12:01:39.990Z,70.78
2023-01-21T12:02:39.802Z,70.97
2023-01-21T12:03:40.174Z,70.97
2023-01-21T12:04:40.059Z,70.78
2023-01-21T12:05:40.076Z,70.58
2023-01-21T12:06:40.051Z,70.87
2023-01-21T12:07:40.068Z,70.78
2023-01-21T12:08:40.320Z,70.68
2023-01-21T12:09:39.833Z,70.58
2023-01-21T12:10:40.109Z,70.87
2023-01-21T12:11:40.121Z,70.68
2023-01-21T12:12:40.132Z,70.58
2023-01-21T12:13:40.165Z,70.68
2023-01-21T12:14:40.163Z,70.78
2023-01-21T12:15:40.360Z,70.87
2023-01-21T12:16:40.221Z,70.87
2023-01-21T12:17:42.493Z,70.58
2023-01-21T12:18:40.211Z,70.39
2023-01-21T12:19:40.235Z,70.87
2023-01-21T12:20:40.241Z,70.78
2023-01-21T12:21:40.277Z,70.87
2023-01-21T12:22:40.267Z,71.06
2023-01-21T12:23:40.270Z,70.78
2023-01-21T12:24:40.295Z,70.78
2023-01-21T12:25:40.299Z,71.06
2023-01-21T12:26:40.323Z,70.87
2023-01-21T12:27:40.329Z,70.49
2023-01-21T12:28:40.569Z,71.34
2023-01-21T12:29:40.100Z,71.25
2023-01-21T12:30:40.439Z,70.97
2023-01-21T12:31:40.224Z,71.25
2023-01-21T12:32:40.415Z,71.15
2023-01-21T12:33:40.145Z,71.25
2023-01-21T12:34:40.425Z,71.25
2023-01-21T12:35:40.445Z,70.97
2023-01-21T12:36:40.451Z,71.06
2023-01-21T12:37:40.481Z,71.06
2023-01-21T12:38:40.210Z,71.44
2023-01-21T12:39:40.225Z,71.44
2023-01-21T12:40:40.510Z,71.06
2023-01-21T12:41:40.255Z,71.62
2023-01-21T12:42:40.310Z,71.25
2023-01-21T12:43:41.456Z,71.25
2023-01-21T12:44:40.292Z,71.25
2023-01-21T12:45:40.565Z,71.44
2023-01-21T12:46:41.020Z,71.15
2023-01-21T12:47:40.326Z,71.34
2023-01-21T12:48:40.642Z,71.25
2023-01-21T12:49:40.612Z,71.25
2023-01-21T12:50:40.634Z,71.44
2023-01-21T12:51:40.643Z,71.25
2023-01-21T12:52:40.661Z,71.44
2023-01-21T12:53:40.725Z,71.44
2023-01-21T12:54:40.687Z,71.44
2023-01-21T12:55:40.694Z,71.44
2023-01-21T12:56:40.733Z,71.34